• Join FlightAware (Why Join?)
  • Login
  • US Flag 
01:24AM EST


 

Airport Tracker/Info


-or-


 

Live Flight TrackerFlight Track Log ✈ JBU51 ✈ 04-May-2013 ✈ KBTV - KJFK

Flight Track Log - Related Links

Times and Time Zones

All times are in EDT time to prevent confusion due to time zone crossing. See the JBU51 flight status page for this flight to view local times or setup timezone preferences in your user account.

Time Position Orientation Groundspeed Altitude Reporting Facility
EDT Latitude Longitude Course Direction KTS MPH feet Rate Location/Type
11:26AM 44.3778 -73.1489 196° South 200 230 4,600  Level Boston Center
11:27AM 44.3069 -73.1797 197° South 247 284 8,000 3,300 Climbing Boston Center
11:28AM 44.1312 -73.2758 195° South  Level FlightAware Approximate
11:28AM 44.2294 -73.2108 196° South 279 321 11,300  Level Boston Center
11:29AM 44.0467 -73.3067 194° South  Level FlightAware Approximate
11:30AM 43.9618 -73.3350 193° South  Level FlightAware Approximate
11:30AM 44.1397 -73.2472 196° South 324 373 13,000  Level Boston Center
11:31AM 43.8774 -73.3658 196° South  Level FlightAware Approximate
11:31AM 44.0081 -73.3003 196° South 380 437 16,500  Level Boston Center
11:32AM 43.7935 -73.3995 196° South  Level FlightAware Approximate
11:32AM 43.9225 -73.3364 197° South 390 449 18,000  Level Boston Center
11:33AM 43.8136 -73.3808 196° South 405 466 20,300 2,100 Climbing Boston Center
11:34AM 43.6944 -73.4308 197° South 431 496 22,300 1,980 Climbing Boston Center
11:35AM 43.5481 -73.4856 195° South 452 520 24,300 1,800 Climbing Boston Center
11:36AM 43.4225 -73.5350 196° South 464 534 26,000 1,620 Climbing Boston Center
11:37AM 43.2969 -73.5869 197° South 474 545 27,600 960 Climbing Boston Center
11:38AM 43.1653 -73.6383 196° South 484 557 28,000 180 Climbing Boston Center
11:39AM 43.0375 -73.6900 196° South 484 557 28,000  Level Boston Center
11:40AM 42.9100 -73.7383 196° South 484 557 28,000  Level Boston Center
11:41AM 42.7967 -73.7869 197° South 476 548 28,000  Level Boston Center
11:42AM 42.6653 -73.8094 187° South 476 548 28,000  Level Boston Center
11:43AM 42.5192 -73.8119 181° South 476 548 28,000  Level Boston Center
11:44AM 42.3858 -73.8175 182° South 482 555 28,000  Level Boston Center
11:45AM 42.2525 -73.8172 180° South 482 555 28,000  Level Boston Center
11:46AM 42.1169 -73.8200 181° South 477 549 28,000  Level Boston Center
11:47AM 42.0103 -73.8456 190° South 482 555 28,000  Level Boston Center
11:48AM 41.8553 -73.9006 195° South 482 555 28,000 -1,320 Level Boston Center
11:50AM 41.6072 -73.9839 194° South 487 560 23,900 -2,220 Descending New York Center
11:51AM 41.4622 -74.0350 195° South 464 534 21,100 -1,980 Descending New York Center
11:52AM 41.3500 -74.0958 202° Southwest 453 521 20,000 -600 Descending New York Center
11:53AM 41.2500 -74.1792 212° Southwest 437 503 20,000  Level New York Center
11:54AM 41.1689 -74.2439 211° Southwest 416 479 20,000  Level New York Center
11:55AM 41.0739 -74.2831 197° South 363 418 20,000 -420 Level New York Center
11:56AM 40.9833 -74.2000 145° Southeast 346 398 19,300 -840 Descending New York TRACON
11:57AM 40.9167 -74.1333 143° Southeast 329 379 18,500 -1,140 Descending New York TRACON
11:58AM 40.8667 -74.0333 123° Southeast 313 360 17,100 -1,500 Descending New York TRACON
11:59AM 40.8500 -73.9333 102° East 304 350 15,500 -1,740 Descending New York TRACON
12:00PM 40.7833 -73.8667 143° Southeast 302 348 13,900 -1,320 Descending New York TRACON
12:01PM 40.7167 -73.8167 150° Southeast 279 321 13,000 -960 Descending New York TRACON
12:02PM 40.6500 -73.7667 150° Southeast 261 300 12,000 -1,920 Descending New York TRACON
12:03PM 40.5667 -73.7333 163° South 260 299 9,200 -2,040 Descending New York TRACON
12:04PM 40.4833 -73.7167 171° South 282 325 8,000 -960 Descending New York TRACON
12:05PM 40.4167 -73.7500 201° Southwest 292 336 7,300 -1,260 Descending New York TRACON
12:06PM 40.3333 -73.8000 205° Southwest 289 333 5,500 -1,260 Descending New York TRACON
12:07PM 40.2833 -73.8500 217° Southwest 248 285 4,800 -780 Descending New York TRACON
12:08PM 40.3000 -73.9333 285° West 236 272 4,000 -360 Descending New York TRACON
12:09PM 40.3333 -74.0167 298° West 234 269 4,100  Climbing New York TRACON
12:10PM 40.3833 -74.0500 333° Northwest 213 245 4,000 -60 Descending New York TRACON
12:11PM 40.4333 -74.0333 14° North 169 194 4,000 -180 Level New York TRACON
12:12PM 40.4667 -74.0000 37° Northeast 167 192 3,700 -420 Descending New York TRACON
12:13PM 40.5167 -73.9833 14° North 162 186 3,200 -360 Descending New York TRACON
12:14PM 40.5500 -73.9500 37° Northeast 162 186 3,000 -180 Descending New York TRACON
12:15PM 40.5833 -73.9167 37° Northeast 149 171 2,900 -480 Descending New York TRACON
12:16PM 40.6167 -73.8833 37° Northeast 153 176 2,100 -900 Descending New York TRACON
12:17PM 40.6500 -73.8667 21° North 150 173 1,300 -840 Descending New York TRACON
12:18PM 40.6667 -73.8167 66° East 132 152 600 -720 Descending New York TRACON